< < Back
Terminal Aerodrome Forecast


Current Version              Previous Versions:   1  2  3  4  5  6  7  8  9  

Terminal Aerodrome Forecast

469
FTUS44 KBMX 260939 AAB
TAFTCL
TAF AMD
KTCL 260939Z 2610/2706 21004KT P6SM SKC
     FM261130 24003KT 4SM BR OVC007
     FM261400 30012KT P6SM SCT250=

Latest METAR

796
SAUS70 KWBC 270000 RRB
MTRTCL
METAR KTCL 262353Z 34009KT 9SM CLR 26/16 A2972 RMK AO2 SLP063 T02610161
10300 20261 51005


USA.gov is the U.S. government's official web portal to all federal, state and local government web resources and services.